Teofilo Otoni, Brazil
Current Conditions -  °F | °C
As of 5:00 PM on Monday 20 Oct 2014 (Local Time) from SBMK Reporting Station
Few Clouds Few Clouds  
Wind Chill: 93°   Ceiling: Unl
Heat Index: 93°   Visibility: 6mi
Dew Point: 52°   Wind: 6mph
Humidity: 24%   Direction: 80°E
Pressure: 29.83"   Gusts: NA
Location:  17.87°S, 41.5°W
Report Text: SBMK 202000Z 08005KT 9000 FEW048 FEW055TCU 34/11 Q1010
Loading
Personal Weather Stations






























Interactive Weather Map
Tropical Storm Tracking
New forecast layout! Learn more

10-Day Weather Forecast

Advertisements
Track Severe Weather on mobile